createdAt,value
2023-04-30T00:00:52.634Z,446.00
2023-04-30T00:01:52.743Z,448.00
2023-04-30T00:02:52.908Z,448.00
2023-04-30T00:03:52.876Z,445.00
2023-04-30T00:04:52.865Z,441.00
2023-04-30T00:05:52.882Z,441.00
2023-04-30T00:06:52.923Z,438.00
2023-04-30T00:07:52.995Z,436.00
2023-04-30T00:08:53.055Z,437.00
2023-04-30T00:09:53.432Z,436.00
2023-04-30T00:10:53.138Z,437.00
2023-04-30T00:11:53.171Z,437.00
2023-04-30T00:12:53.201Z,437.00
2023-04-30T00:13:53.256Z,437.00
2023-04-30T00:14:53.289Z,437.00
2023-04-30T00:15:53.337Z,435.00
2023-04-30T00:16:53.338Z,438.00
2023-04-30T00:17:53.438Z,439.00
2023-04-30T00:18:53.383Z,439.00
2023-04-30T00:19:53.575Z,440.00
2023-04-30T00:20:53.464Z,440.00
2023-04-30T00:21:53.501Z,440.00
2023-04-30T00:22:53.524Z,438.00
2023-04-30T00:23:53.582Z,437.00
2023-04-30T00:24:53.578Z,440.00
2023-04-30T00:25:53.608Z,441.00
2023-04-30T00:26:53.614Z,441.00
2023-04-30T00:27:53.626Z,442.00
2023-04-30T00:28:53.638Z,442.00
2023-04-30T00:29:53.837Z,441.00
2023-04-30T00:30:53.655Z,441.00
2023-04-30T00:31:53.656Z,442.00
2023-04-30T00:32:53.689Z,445.00
2023-04-30T00:33:53.652Z,445.00
2023-04-30T00:34:53.666Z,445.00
2023-04-30T00:35:53.650Z,446.00
2023-04-30T00:36:53.646Z,446.00
2023-04-30T00:37:53.670Z,446.00
2023-04-30T00:38:53.697Z,446.00
2023-04-30T00:39:53.868Z,446.00
2023-04-30T00:40:53.703Z,448.00
2023-04-30T00:41:53.707Z,448.00
2023-04-30T00:42:53.724Z,449.00
2023-04-30T00:43:53.710Z,449.00
2023-04-30T00:44:53.707Z,448.00
2023-04-30T00:45:53.744Z,451.00
2023-04-30T00:46:53.706Z,452.00
2023-04-30T00:47:53.740Z,453.00
2023-04-30T00:48:53.687Z,451.00
2023-04-30T00:49:53.848Z,452.00
2023-04-30T00:50:53.689Z,452.00
2023-04-30T00:51:53.689Z,453.00
2023-04-30T00:52:53.676Z,451.00
2023-04-30T00:53:53.702Z,451.00
2023-04-30T00:54:53.700Z,452.00
2023-04-30T00:55:53.733Z,454.00
2023-04-30T00:56:53.706Z,452.00
2023-04-30T00:57:53.699Z,452.00
2023-04-30T00:58:53.705Z,449.00
2023-04-30T00:59:53.902Z,447.00
2023-04-30T01:00:53.747Z,448.00
2023-04-30T01:01:53.688Z,447.00
2023-04-30T01:02:53.746Z,446.00
2023-04-30T01:03:53.694Z,446.00
2023-04-30T01:04:53.681Z,448.00
2023-04-30T01:05:53.803Z,446.00
2023-04-30T01:06:53.715Z,445.00
2023-04-30T01:07:53.699Z,446.00
2023-04-30T01:08:53.687Z,445.00
2023-04-30T01:09:53.888Z,445.00
2023-04-30T01:10:53.722Z,446.00
2023-04-30T01:11:53.704Z,445.00
2023-04-30T01:12:53.676Z,443.00
2023-04-30T01:13:53.684Z,443.00
2023-04-30T01:14:53.694Z,443.00
2023-04-30T01:15:53.704Z,442.00
2023-04-30T01:16:53.675Z,443.00
2023-04-30T01:17:53.818Z,447.00
2023-04-30T01:18:53.688Z,443.00
2023-04-30T01:19:54.026Z,443.00
2023-04-30T01:20:53.661Z,445.00
2023-04-30T01:21:53.679Z,445.00
2023-04-30T01:22:53.660Z,445.00
2023-04-30T01:23:53.658Z,444.00
2023-04-30T01:24:53.676Z,445.00
2023-04-30T01:25:53.656Z,446.00
2023-04-30T01:26:53.669Z,443.00
2023-04-30T01:27:53.666Z,441.00
2023-04-30T01:28:53.659Z,440.00
2023-04-30T01:29:54.109Z,441.00
2023-04-30T01:30:53.683Z,443.00
2023-04-30T01:31:53.654Z,440.00
2023-04-30T01:32:53.649Z,440.00
2023-04-30T01:33:53.660Z,439.00
2023-04-30T01:34:53.633Z,438.00
2023-04-30T01:35:53.635Z,441.00
2023-04-30T01:36:53.639Z,441.00
2023-04-30T01:37:53.658Z,441.00
2023-04-30T01:38:53.637Z,440.00
2023-04-30T01:39:53.880Z,439.00
2023-04-30T01:40:53.634Z,437.00
2023-04-30T01:41:53.656Z,436.00
2023-04-30T01:42:53.649Z,437.00
2023-04-30T01:43:53.650Z,437.00
2023-04-30T01:44:53.641Z,438.00
2023-04-30T01:45:53.698Z,439.00
2023-04-30T01:46:53.640Z,439.00
2023-04-30T01:47:53.700Z,439.00
2023-04-30T01:48:53.650Z,441.00
2023-04-30T01:49:53.860Z,440.00
2023-04-30T01:50:53.660Z,442.00
2023-04-30T01:51:53.645Z,440.00
2023-04-30T01:52:53.661Z,439.00
2023-04-30T01:53:53.644Z,439.00
2023-04-30T01:54:53.658Z,440.00
2023-04-30T01:55:53.679Z,440.00
2023-04-30T01:56:53.664Z,441.00
2023-04-30T01:57:53.650Z,445.00
2023-04-30T01:58:53.653Z,445.00
2023-04-30T01:59:53.843Z,444.00
2023-04-30T02:00:53.655Z,444.00
2023-04-30T02:01:53.731Z,446.00
2023-04-30T02:02:53.766Z,445.00
2023-04-30T02:03:53.805Z,446.00
2023-04-30T02:04:53.686Z,445.00
2023-04-30T02:05:53.667Z,442.00
2023-04-30T02:06:53.664Z,440.00
2023-04-30T02:07:53.666Z,441.00
2023-04-30T02:08:53.674Z,440.00
2023-04-30T02:09:53.775Z,440.00
2023-04-30T02:10:53.677Z,442.00
2023-04-30T02:11:53.681Z,443.00
2023-04-30T02:12:53.671Z,444.00
2023-04-30T02:13:53.691Z,444.00
2023-04-30T02:14:53.697Z,447.00
2023-04-30T02:15:53.700Z,447.00
2023-04-30T02:16:53.683Z,443.00
2023-04-30T02:17:53.735Z,443.00
2023-04-30T02:18:53.685Z,443.00
2023-04-30T02:19:53.854Z,443.00
2023-04-30T02:20:53.711Z,444.00
2023-04-30T02:21:53.698Z,441.00
2023-04-30T02:22:53.724Z,441.00
2023-04-30T02:23:53.728Z,443.00
2023-04-30T02:24:53.719Z,442.00
2023-04-30T02:25:53.735Z,440.00
2023-04-30T02:26:53.734Z,442.00
2023-04-30T02:27:53.758Z,445.00
2023-04-30T02:28:53.744Z,442.00
2023-04-30T02:29:54.031Z,441.00
2023-04-30T02:30:53.779Z,442.00
2023-04-30T02:31:53.802Z,443.00
2023-04-30T02:32:53.864Z,443.00
2023-04-30T02:33:53.791Z,443.00
2023-04-30T02:34:53.809Z,446.00
2023-04-30T02:35:53.799Z,449.00
2023-04-30T02:36:53.804Z,449.00
2023-04-30T02:37:53.846Z,450.00
2023-04-30T02:38:53.819Z,448.00
2023-04-30T02:39:54.225Z,451.00
2023-04-30T02:40:53.851Z,453.00
2023-04-30T02:41:53.856Z,452.00
2023-04-30T02:42:53.859Z,453.00
2023-04-30T02:43:53.866Z,454.00
2023-04-30T02:44:53.877Z,457.00
2023-04-30T02:45:53.909Z,458.00
2023-04-30T02:46:53.885Z,459.00
2023-04-30T02:47:53.903Z,456.00
2023-04-30T02:48:53.891Z,453.00
2023-04-30T02:49:54.018Z,454.00
2023-04-30T02:50:53.928Z,456.00
2023-04-30T02:51:53.922Z,456.00
2023-04-30T02:52:53.929Z,455.00
2023-04-30T02:53:53.953Z,454.00
2023-04-30T02:54:53.963Z,451.00
2023-04-30T02:55:53.970Z,450.00
2023-04-30T02:56:53.965Z,447.00
2023-04-30T02:57:53.979Z,447.00
2023-04-30T02:58:53.993Z,447.00
2023-04-30T02:59:54.215Z,447.00
2023-04-30T03:00:54.042Z,445.00
2023-04-30T03:01:54.038Z,445.00
2023-04-30T03:02:54.120Z,443.00
2023-04-30T03:03:54.105Z,443.00
2023-04-30T03:04:54.083Z,443.00
2023-04-30T03:05:54.149Z,446.00
2023-04-30T03:06:54.145Z,445.00
2023-04-30T03:07:54.117Z,446.00
2023-04-30T03:08:54.131Z,446.00
2023-04-30T03:09:54.332Z,445.00
2023-04-30T03:10:54.180Z,441.00
2023-04-30T03:11:54.204Z,443.00
2023-04-30T03:12:54.217Z,446.00
2023-04-30T03:13:54.216Z,445.00
2023-04-30T03:14:54.217Z,443.00
2023-04-30T03:15:54.257Z,442.00
2023-04-30T03:16:54.264Z,444.00
2023-04-30T03:17:54.282Z,444.00
2023-04-30T03:18:54.292Z,443.00
2023-04-30T03:19:54.484Z,442.00
2023-04-30T03:20:54.289Z,444.00
2023-04-30T03:21:54.314Z,443.00
2023-04-30T03:22:54.335Z,442.00
2023-04-30T03:23:54.339Z,440.00
2023-04-30T03:24:54.353Z,442.00
2023-04-30T03:25:54.374Z,443.00
2023-04-30T03:26:54.382Z,443.00
2023-04-30T03:27:54.395Z,442.00
2023-04-30T03:28:54.388Z,441.00
2023-04-30T03:29:54.605Z,441.00
2023-04-30T03:30:54.425Z,442.00
2023-04-30T03:31:54.446Z,443.00
2023-04-30T03:32:54.479Z,442.00
2023-04-30T03:33:54.493Z,443.00
2023-04-30T03:34:54.453Z,446.00
2023-04-30T03:35:54.463Z,448.00
2023-04-30T03:36:54.456Z,447.00
2023-04-30T03:37:54.481Z,443.00
2023-04-30T03:38:54.501Z,445.00
2023-04-30T03:39:54.682Z,446.00
2023-04-30T03:40:54.509Z,445.00
2023-04-30T03:41:54.515Z,446.00
2023-04-30T03:42:54.541Z,446.00
2023-04-30T03:43:54.549Z,445.00
2023-04-30T03:44:54.566Z,444.00
2023-04-30T03:45:54.626Z,443.00
2023-04-30T03:46:54.586Z,443.00
2023-04-30T03:47:54.657Z,445.00
2023-04-30T03:48:54.623Z,444.00
2023-04-30T03:49:55.005Z,445.00
2023-04-30T03:50:54.653Z,444.00
2023-04-30T03:51:54.681Z,446.00
2023-04-30T03:52:54.663Z,441.00
2023-04-30T03:53:54.706Z,441.00
2023-04-30T03:54:54.692Z,443.00
2023-04-30T03:55:54.730Z,443.00
2023-04-30T03:56:54.725Z,445.00
2023-04-30T03:57:54.732Z,445.00
2023-04-30T03:58:54.765Z,444.00
2023-04-30T03:59:54.953Z,444.00
2023-04-30T04:00:54.796Z,445.00
2023-04-30T04:01:54.819Z,447.00
2023-04-30T04:02:54.813Z,445.00
2023-04-30T04:03:54.841Z,445.00
2023-04-30T04:04:54.836Z,446.00
2023-04-30T04:05:54.863Z,446.00
2023-04-30T04:06:54.826Z,446.00
2023-04-30T04:07:54.833Z,445.00
2023-04-30T04:08:54.853Z,447.00
2023-04-30T04:09:55.042Z,446.00
2023-04-30T04:10:54.868Z,446.00
2023-04-30T04:11:54.859Z,448.00
2023-04-30T04:12:54.859Z,447.00
2023-04-30T04:13:54.884Z,448.00
2023-04-30T04:14:54.871Z,448.00
2023-04-30T04:15:54.899Z,448.00
2023-04-30T04:16:54.880Z,448.00
2023-04-30T04:17:54.940Z,447.00
2023-04-30T04:18:54.898Z,447.00
2023-04-30T04:19:55.117Z,447.00
2023-04-30T04:20:54.873Z,447.00
2023-04-30T04:21:54.935Z,447.00
2023-04-30T04:22:54.885Z,445.00
2023-04-30T04:23:54.872Z,446.00
2023-04-30T04:24:54.871Z,447.00
2023-04-30T04:25:54.880Z,444.00
2023-04-30T04:26:54.892Z,443.00
2023-04-30T04:27:54.875Z,444.00
2023-04-30T04:28:54.880Z,442.00
2023-04-30T04:29:55.139Z,442.00
2023-04-30T04:30:54.891Z,442.00
2023-04-30T04:31:54.953Z,443.00
2023-04-30T04:32:54.905Z,444.00
2023-04-30T04:33:54.884Z,443.00
2023-04-30T04:34:54.899Z,445.00
2023-04-30T04:35:54.883Z,444.00
2023-04-30T04:36:54.904Z,444.00
2023-04-30T04:37:54.900Z,445.00
2023-04-30T04:38:54.891Z,444.00
2023-04-30T04:39:55.100Z,443.00
2023-04-30T04:40:54.876Z,443.00
2023-04-30T04:41:54.866Z,442.00
2023-04-30T04:42:54.870Z,440.00
2023-04-30T04:43:54.858Z,439.00
2023-04-30T04:44:54.860Z,438.00
2023-04-30T04:45:54.897Z,436.00
2023-04-30T04:46:54.918Z,439.00
2023-04-30T04:47:54.921Z,439.00
2023-04-30T04:48:54.854Z,441.00
2023-04-30T04:49:55.121Z,443.00
2023-04-30T04:50:54.846Z,445.00
2023-04-30T04:51:54.865Z,447.00
2023-04-30T04:52:54.860Z,447.00
2023-04-30T04:53:54.854Z,448.00
2023-04-30T04:54:54.865Z,449.00
2023-04-30T04:55:54.857Z,448.00
2023-04-30T04:56:54.852Z,448.00
2023-04-30T04:57:54.890Z,446.00
2023-04-30T04:58:54.852Z,445.00
2023-04-30T04:59:55.044Z,446.00
2023-04-30T05:00:54.872Z,446.00
2023-04-30T05:01:54.945Z,447.00
2023-04-30T05:02:54.947Z,447.00
2023-04-30T05:03:54.996Z,445.00
2023-04-30T05:04:54.871Z,444.00
2023-04-30T05:05:54.958Z,445.00
2023-04-30T05:06:54.946Z,444.00
2023-04-30T05:07:55.013Z,443.00
2023-04-30T05:08:55.025Z,444.00
2023-04-30T05:09:55.340Z,443.00
2023-04-30T05:10:55.132Z,443.00
2023-04-30T05:11:55.118Z,441.00
2023-04-30T05:12:55.113Z,441.00
2023-04-30T05:13:55.117Z,441.00
2023-04-30T05:14:55.120Z,440.00
2023-04-30T05:15:55.143Z,442.00
2023-04-30T05:16:55.125Z,441.00
2023-04-30T05:17:55.141Z,445.00
2023-04-30T05:18:55.113Z,444.00
2023-04-30T05:19:55.566Z,444.00
2023-04-30T05:20:55.107Z,447.00
2023-04-30T05:21:55.090Z,447.00
2023-04-30T05:22:55.101Z,448.00
2023-04-30T05:23:55.103Z,447.00
2023-04-30T05:24:55.105Z,449.00
2023-04-30T05:25:55.102Z,451.00
2023-04-30T05:26:55.096Z,451.00
2023-04-30T05:27:55.093Z,451.00
2023-04-30T05:28:55.091Z,450.00
2023-04-30T05:29:55.296Z,450.00
2023-04-30T05:30:55.095Z,448.00
2023-04-30T05:31:55.111Z,448.00
2023-04-30T05:32:55.107Z,447.00
2023-04-30T05:33:55.075Z,447.00
2023-04-30T05:34:55.080Z,449.00
2023-04-30T05:35:55.070Z,447.00
2023-04-30T05:36:55.080Z,445.00
2023-04-30T05:37:55.085Z,443.00
2023-04-30T05:38:55.077Z,442.00
2023-04-30T05:39:55.248Z,444.00
2023-04-30T05:40:55.073Z,445.00
2023-04-30T05:41:55.059Z,444.00
2023-04-30T05:42:55.057Z,446.00
2023-04-30T05:43:55.104Z,447.00
2023-04-30T05:44:55.103Z,449.00
2023-04-30T05:45:55.200Z,449.00
2023-04-30T05:46:55.124Z,452.00
2023-04-30T05:47:55.141Z,452.00
2023-04-30T05:48:55.145Z,450.00
2023-04-30T05:49:55.375Z,448.00
2023-04-30T05:50:55.160Z,448.00
2023-04-30T05:51:55.190Z,450.00
2023-04-30T05:52:55.225Z,448.00
2023-04-30T05:53:55.226Z,447.00
2023-04-30T05:54:55.247Z,448.00
2023-04-30T05:55:55.270Z,450.00
2023-04-30T05:56:55.311Z,448.00
2023-04-30T05:57:55.291Z,447.00
2023-04-30T05:58:55.318Z,448.00
2023-04-30T05:59:55.480Z,447.00
2023-04-30T06:00:55.321Z,447.00
2023-04-30T06:01:55.358Z,446.00
2023-04-30T06:02:55.377Z,448.00
2023-04-30T06:03:55.398Z,449.00
2023-04-30T06:04:55.431Z,450.00
2023-04-30T06:05:55.445Z,451.00
2023-04-30T06:06:55.474Z,452.00
2023-04-30T06:07:55.524Z,452.00
2023-04-30T06:08:55.552Z,452.00
2023-04-30T06:09:55.809Z,454.00
2023-04-30T06:10:55.571Z,454.00
2023-04-30T06:11:55.616Z,456.00
2023-04-30T06:12:55.649Z,454.00
2023-04-30T06:13:55.661Z,454.00
2023-04-30T06:14:55.746Z,451.00
2023-04-30T06:15:55.733Z,451.00
2023-04-30T06:16:55.845Z,450.00
2023-04-30T06:17:55.853Z,448.00
2023-04-30T06:18:55.841Z,449.00
2023-04-30T06:19:56.218Z,451.00
2023-04-30T06:20:55.932Z,450.00
2023-04-30T06:21:55.968Z,447.00
2023-04-30T06:22:55.991Z,447.00
2023-04-30T06:23:56.057Z,448.00
2023-04-30T06:24:56.094Z,451.00
2023-04-30T06:25:56.125Z,451.00
2023-04-30T06:26:56.189Z,451.00
2023-04-30T06:27:56.267Z,450.00
2023-04-30T06:28:56.283Z,449.00
2023-04-30T06:29:56.570Z,447.00
2023-04-30T06:30:56.420Z,444.00
2023-04-30T06:31:56.473Z,444.00
2023-04-30T06:32:56.500Z,443.00
2023-04-30T06:33:56.530Z,443.00
2023-04-30T06:34:56.579Z,446.00
2023-04-30T06:35:56.628Z,448.00
2023-04-30T06:36:56.685Z,452.00
2023-04-30T06:37:56.736Z,452.00
2023-04-30T06:38:56.797Z,451.00
2023-04-30T06:39:57.150Z,450.00
2023-04-30T06:40:56.926Z,450.00
2023-04-30T06:41:57.046Z,450.00
2023-04-30T06:42:57.062Z,450.00
2023-04-30T06:43:57.107Z,450.00
2023-04-30T06:44:57.196Z,450.00
2023-04-30T06:45:57.273Z,449.00
2023-04-30T06:46:57.318Z,449.00
2023-04-30T06:47:57.413Z,451.00
2023-04-30T06:48:57.438Z,450.00
2023-04-30T06:49:57.529Z,448.00
2023-04-30T06:50:57.552Z,448.00
2023-04-30T06:51:57.634Z,450.00
2023-04-30T06:52:57.687Z,449.00
2023-04-30T06:53:57.736Z,452.00
2023-04-30T06:54:57.813Z,452.00
2023-04-30T06:55:57.850Z,452.00
2023-04-30T06:56:57.935Z,453.00
2023-04-30T06:57:57.996Z,453.00
2023-04-30T06:58:58.042Z,455.00
2023-04-30T06:59:58.112Z,455.00
2023-04-30T07:00:58.178Z,458.00
2023-04-30T07:01:58.310Z,459.00
2023-04-30T07:02:58.353Z,458.00
2023-04-30T07:03:58.467Z,456.00
2023-04-30T07:04:58.405Z,457.00
2023-04-30T07:05:58.486Z,456.00
2023-04-30T07:06:58.538Z,455.00
2023-04-30T07:07:58.580Z,454.00
2023-04-30T07:08:58.645Z,457.00
2023-04-30T07:09:58.712Z,457.00
2023-04-30T07:10:58.767Z,454.00
2023-04-30T07:11:58.826Z,452.00
2023-04-30T07:12:58.894Z,451.00
2023-04-30T07:13:58.964Z,448.00
2023-04-30T07:14:59.033Z,449.00
2023-04-30T07:15:59.127Z,449.00
2023-04-30T07:16:59.125Z,447.00
2023-04-30T07:17:59.270Z,449.00
2023-04-30T07:18:59.254Z,448.00
2023-04-30T07:19:59.296Z,449.00
2023-04-30T07:20:59.364Z,450.00
2023-04-30T07:21:59.431Z,449.00
2023-04-30T07:22:59.476Z,448.00
2023-04-30T07:23:59.538Z,450.00
2023-04-30T07:24:59.569Z,450.00
2023-04-30T07:25:59.622Z,448.00
2023-04-30T07:26:59.690Z,449.00
2023-04-30T07:27:59.721Z,446.00
2023-04-30T07:28:59.778Z,446.00
2023-04-30T07:29:59.842Z,448.00
2023-04-30T07:30:59.878Z,448.00
2023-04-30T07:31:59.994Z,449.00
2023-04-30T07:33:00.029Z,449.00
2023-04-30T07:34:00.030Z,449.00
2023-04-30T07:35:00.073Z,447.00
2023-04-30T07:36:00.149Z,446.00
2023-04-30T07:37:00.166Z,446.00
2023-04-30T07:38:00.220Z,445.00
2023-04-30T07:39:00.274Z,446.00
2023-04-30T07:40:00.321Z,447.00
2023-04-30T07:41:00.558Z,448.00
2023-04-30T07:42:00.404Z,448.00
2023-04-30T07:43:00.457Z,447.00
2023-04-30T07:44:00.517Z,447.00
2023-04-30T07:45:00.556Z,448.00
2023-04-30T07:46:00.615Z,446.00
2023-04-30T07:47:00.659Z,442.00
2023-04-30T07:48:00.735Z,440.00
2023-04-30T07:49:00.756Z,441.00
2023-04-30T07:50:00.794Z,442.00
2023-04-30T07:51:00.846Z,446.00
2023-04-30T07:52:00.877Z,444.00
2023-04-30T07:53:00.931Z,445.00
2023-04-30T07:54:01.002Z,444.00
2023-04-30T07:55:01.032Z,445.00
2023-04-30T07:56:01.056Z,442.00
2023-04-30T07:57:01.133Z,442.00
2023-04-30T07:58:01.150Z,439.00
2023-04-30T07:59:01.183Z,439.00
2023-04-30T08:00:01.231Z,441.00
2023-04-30T08:01:01.272Z,441.00
2023-04-30T08:02:01.338Z,443.00
2023-04-30T08:03:01.585Z,443.00
2023-04-30T08:04:01.465Z,443.00
2023-04-30T08:05:01.449Z,444.00
2023-04-30T08:06:01.514Z,445.00
2023-04-30T08:07:01.515Z,446.00
2023-04-30T08:08:01.556Z,447.00
2023-04-30T08:09:01.603Z,448.00
2023-04-30T08:10:01.645Z,448.00
2023-04-30T08:11:01.704Z,447.00
2023-04-30T08:12:01.718Z,445.00
2023-04-30T08:13:01.781Z,445.00
2023-04-30T08:14:01.822Z,443.00
2023-04-30T08:15:01.864Z,441.00
2023-04-30T08:16:01.955Z,439.00
2023-04-30T08:17:02.027Z,438.00
2023-04-30T08:18:02.022Z,440.00
2023-04-30T08:19:02.012Z,440.00
2023-04-30T08:20:02.071Z,442.00
2023-04-30T08:21:02.113Z,443.00
2023-04-30T08:22:02.173Z,440.00
2023-04-30T08:23:02.213Z,440.00
2023-04-30T08:24:02.270Z,440.00
2023-04-30T08:25:02.261Z,439.00
2023-04-30T08:26:02.302Z,442.00
2023-04-30T08:27:02.342Z,444.00
2023-04-30T08:28:02.396Z,445.00
2023-04-30T08:29:02.428Z,444.00
2023-04-30T08:30:02.455Z,443.00
2023-04-30T08:31:02.496Z,445.00
2023-04-30T08:32:02.558Z,443.00
2023-04-30T08:33:02.636Z,446.00
2023-04-30T08:34:02.607Z,444.00
2023-04-30T08:35:02.658Z,447.00
2023-04-30T08:36:02.686Z,446.00
2023-04-30T08:37:02.741Z,444.00
2023-04-30T08:38:02.764Z,444.00
2023-04-30T08:39:02.800Z,443.00
2023-04-30T08:40:02.858Z,443.00
2023-04-30T08:41:02.893Z,442.00
2023-04-30T08:42:02.941Z,442.00
2023-04-30T08:43:02.945Z,444.00
2023-04-30T08:44:02.994Z,447.00
2023-04-30T08:45:03.045Z,445.00
2023-04-30T08:46:03.170Z,445.00
2023-04-30T08:47:03.103Z,446.00
2023-04-30T08:48:03.194Z,445.00
2023-04-30T08:49:03.164Z,443.00
2023-04-30T08:50:03.232Z,440.00
2023-04-30T08:51:03.241Z,439.00
2023-04-30T08:52:03.287Z,439.00
2023-04-30T08:53:03.345Z,439.00
2023-04-30T08:54:03.375Z,438.00
2023-04-30T08:55:03.393Z,438.00
2023-04-30T08:56:03.413Z,444.00
2023-04-30T08:57:03.477Z,442.00
2023-04-30T08:58:03.509Z,441.00
2023-04-30T08:59:03.523Z,438.00
2023-04-30T09:00:03.580Z,436.00
2023-04-30T09:01:03.664Z,437.00
2023-04-30T09:02:03.697Z,438.00
2023-04-30T09:03:03.763Z,437.00
2023-04-30T09:04:03.744Z,435.00
2023-04-30T09:05:03.731Z,436.00
2023-04-30T09:06:03.771Z,435.00
2023-04-30T09:07:05.205Z,435.00
2023-04-30T09:08:04.529Z,437.00
2023-04-30T09:09:03.831Z,438.00
2023-04-30T09:10:03.877Z,437.00
2023-04-30T09:11:03.899Z,436.00
2023-04-30T09:12:03.916Z,442.00
2023-04-30T09:13:03.953Z,441.00
2023-04-30T09:14:03.994Z,444.00
2023-04-30T09:15:04.275Z,445.00
2023-04-30T09:16:04.052Z,445.00
2023-04-30T09:17:04.062Z,446.00
2023-04-30T09:18:04.128Z,443.00
2023-04-30T09:19:04.112Z,441.00
2023-04-30T09:20:04.140Z,441.00
2023-04-30T09:21:04.149Z,441.00
2023-04-30T09:22:04.171Z,443.00
2023-04-30T09:23:04.176Z,440.00
2023-04-30T09:24:04.217Z,441.00
2023-04-30T09:25:04.223Z,442.00
2023-04-30T09:26:04.242Z,442.00
2023-04-30T09:27:04.238Z,440.00
2023-04-30T09:28:04.260Z,440.00
2023-04-30T09:29:04.280Z,440.00
2023-04-30T09:30:04.476Z,437.00
2023-04-30T09:31:04.322Z,437.00
2023-04-30T09:32:04.341Z,438.00
2023-04-30T09:33:04.351Z,441.00
2023-04-30T09:34:04.448Z,442.00
2023-04-30T09:35:04.365Z,440.00
2023-04-30T09:36:04.373Z,438.00
2023-04-30T09:37:04.382Z,438.00
2023-04-30T09:38:04.403Z,441.00
2023-04-30T09:39:04.419Z,440.00
2023-04-30T09:40:04.569Z,439.00
2023-04-30T09:41:04.426Z,439.00
2023-04-30T09:42:04.444Z,441.00
2023-04-30T09:43:04.472Z,442.00
2023-04-30T09:44:04.449Z,440.00
2023-04-30T09:45:04.456Z,440.00
2023-04-30T09:46:04.450Z,441.00
2023-04-30T09:47:04.503Z,441.00
2023-04-30T09:48:16.404Z,443.00
2023-04-30T09:49:05.432Z,444.00
2023-04-30T09:50:04.449Z,445.00
2023-04-30T09:51:04.444Z,446.00
2023-04-30T09:52:04.422Z,444.00
2023-04-30T09:53:04.447Z,441.00
2023-04-30T09:54:04.416Z,440.00
2023-04-30T09:55:04.417Z,438.00
2023-04-30T09:56:04.393Z,438.00
2023-04-30T09:57:04.395Z,438.00
2023-04-30T09:58:04.392Z,438.00
2023-04-30T09:59:04.381Z,442.00
2023-04-30T10:00:04.375Z,442.00
2023-04-30T10:01:04.410Z,441.00
2023-04-30T10:02:04.367Z,442.00
2023-04-30T10:03:04.398Z,441.00
2023-04-30T10:04:04.421Z,441.00
2023-04-30T10:05:04.346Z,439.00
2023-04-30T10:06:04.375Z,438.00
2023-04-30T10:07:04.346Z,435.00
2023-04-30T10:08:04.318Z,438.00
2023-04-30T10:09:04.326Z,440.00
2023-04-30T10:10:04.302Z,440.00
2023-04-30T10:11:04.292Z,438.00
2023-04-30T10:12:04.310Z,438.00
2023-04-30T10:13:06.509Z,437.00
2023-04-30T10:14:04.274Z,438.00
2023-04-30T10:15:04.270Z,439.00
2023-04-30T10:16:04.329Z,436.00
2023-04-30T10:17:04.271Z,435.00
2023-04-30T10:18:04.313Z,435.00
2023-04-30T10:19:04.237Z,436.00
2023-04-30T10:20:04.256Z,438.00
2023-04-30T10:21:04.225Z,439.00
2023-04-30T10:22:04.221Z,438.00
2023-04-30T10:23:04.219Z,439.00
2023-04-30T10:24:04.214Z,441.00
2023-04-30T10:25:04.203Z,442.00
2023-04-30T10:26:04.209Z,439.00
2023-04-30T10:27:04.192Z,439.00
2023-04-30T10:28:04.986Z,438.00
2023-04-30T10:29:04.165Z,437.00
2023-04-30T10:30:04.165Z,439.00
2023-04-30T10:31:04.174Z,440.00
2023-04-30T10:32:04.210Z,442.00
2023-04-30T10:33:04.190Z,443.00
2023-04-30T10:34:04.136Z,442.00
2023-04-30T10:35:04.142Z,441.00
2023-04-30T10:36:04.141Z,438.00
2023-04-30T10:37:04.112Z,436.00
2023-04-30T10:38:04.116Z,438.00
2023-04-30T10:39:04.111Z,437.00
2023-04-30T10:40:04.128Z,439.00
2023-04-30T10:41:04.094Z,438.00
2023-04-30T10:42:04.079Z,437.00
2023-04-30T10:43:04.076Z,439.00
2023-04-30T10:44:04.064Z,440.00
2023-04-30T10:45:04.087Z,439.00
2023-04-30T10:46:04.228Z,440.00
2023-04-30T10:47:04.058Z,438.00
2023-04-30T10:48:04.068Z,438.00
2023-04-30T10:49:04.041Z,437.00
2023-04-30T10:50:04.031Z,438.00
2023-04-30T10:51:04.028Z,438.00
2023-04-30T10:52:04.032Z,439.00
2023-04-30T10:53:04.023Z,437.00
2023-04-30T10:54:03.997Z,436.00
2023-04-30T10:55:04.004Z,437.00
2023-04-30T10:56:04.038Z,438.00
2023-04-30T10:57:04.120Z,438.00
2023-04-30T10:58:04.174Z,436.00
2023-04-30T10:59:04.220Z,437.00
2023-04-30T11:00:04.293Z,438.00
2023-04-30T11:01:04.561Z,441.00
2023-04-30T11:02:04.453Z,441.00
2023-04-30T11:03:04.540Z,442.00
2023-04-30T11:04:04.534Z,444.00
2023-04-30T11:05:04.689Z,442.00
2023-04-30T11:06:04.689Z,440.00
2023-04-30T11:07:04.687Z,439.00
2023-04-30T11:08:04.785Z,437.00
2023-04-30T11:09:04.850Z,436.00
2023-04-30T11:10:04.986Z,433.00
2023-04-30T11:11:04.940Z,434.00
2023-04-30T11:12:04.996Z,434.00
2023-04-30T11:13:05.095Z,433.00
2023-04-30T11:14:05.121Z,433.00
2023-04-30T11:15:05.206Z,434.00
2023-04-30T11:16:05.298Z,434.00
2023-04-30T11:17:05.330Z,435.00
2023-04-30T11:18:05.468Z,437.00
2023-04-30T11:19:05.448Z,439.00
2023-04-30T11:20:05.514Z,440.00
2023-04-30T11:21:05.542Z,440.00
2023-04-30T11:22:05.652Z,439.00
2023-04-30T11:23:05.673Z,438.00
2023-04-30T11:24:05.743Z,437.00
2023-04-30T11:25:05.813Z,437.00
2023-04-30T11:26:05.858Z,436.00
2023-04-30T11:27:05.957Z,434.00
2023-04-30T11:28:06.006Z,436.00
2023-04-30T11:29:06.133Z,439.00
2023-04-30T11:30:06.115Z,441.00
2023-04-30T11:31:06.217Z,439.00
2023-04-30T11:32:06.233Z,436.00
2023-04-30T11:33:06.337Z,436.00
2023-04-30T11:34:06.352Z,440.00
2023-04-30T11:35:06.424Z,438.00
2023-04-30T11:36:06.470Z,437.00
2023-04-30T11:37:06.529Z,438.00
2023-04-30T11:38:06.598Z,439.00
2023-04-30T11:39:06.657Z,438.00
2023-04-30T11:40:06.716Z,438.00
2023-04-30T11:41:06.796Z,439.00
2023-04-30T11:42:06.844Z,439.00
2023-04-30T11:43:06.885Z,438.00
2023-04-30T11:44:06.945Z,437.00
2023-04-30T11:45:07.004Z,438.00
2023-04-30T11:46:07.115Z,438.00
2023-04-30T11:47:07.199Z,436.00
2023-04-30T11:48:07.259Z,435.00
2023-04-30T11:49:07.240Z,436.00
2023-04-30T11:50:07.301Z,434.00
2023-04-30T11:51:07.384Z,435.00
2023-04-30T11:52:07.423Z,438.00
2023-04-30T11:53:07.490Z,437.00
2023-04-30T11:54:07.534Z,436.00
2023-04-30T11:55:07.594Z,433.00
2023-04-30T11:56:07.658Z,431.00
2023-04-30T11:57:07.736Z,434.00
2023-04-30T11:58:07.788Z,438.00
2023-04-30T11:59:07.833Z,441.00
2023-04-30T12:00:07.889Z,443.00
2023-04-30T12:01:07.957Z,441.00
2023-04-30T12:02:08.057Z,440.00
2023-04-30T12:03:08.109Z,440.00
2023-04-30T12:04:08.147Z,440.00
2023-04-30T12:05:08.180Z,440.00
2023-04-30T12:06:08.291Z,438.00
2023-04-30T12:07:08.312Z,438.00
2023-04-30T12:08:08.381Z,437.00
2023-04-30T12:09:08.437Z,437.00
2023-04-30T12:10:08.505Z,435.00
2023-04-30T12:11:08.567Z,435.00
2023-04-30T12:12:08.633Z,434.00
2023-04-30T12:13:08.680Z,434.00
2023-04-30T12:14:08.722Z,433.00
2023-04-30T12:15:08.802Z,435.00
2023-04-30T12:16:08.923Z,439.00
2023-04-30T12:17:08.909Z,441.00
2023-04-30T12:18:09.017Z,440.00
2023-04-30T12:19:09.028Z,439.00
2023-04-30T12:20:09.129Z,441.00
2023-04-30T12:21:09.159Z,439.00
2023-04-30T12:22:09.213Z,438.00
2023-04-30T12:23:09.299Z,437.00
2023-04-30T12:24:09.364Z,440.00
2023-04-30T12:25:09.395Z,440.00
2023-04-30T12:26:09.470Z,442.00
2023-04-30T12:27:09.533Z,440.00
2023-04-30T12:28:09.593Z,440.00
2023-04-30T12:29:09.635Z,438.00